Terminal Aerodrome Forecast
Issued by NWS Paducah, KY

Home | Current Version | Previous Version | Text Only | Print | Product List | Glossary Off
Versions: 1 2 3 4 5 6 7 8 9 10 11 12 13 14

191
FTUS43 KPAH 201120 AAC
TAFPAH
TAF AMD
KPAH 201120Z 2011/2106 VRB03KT P6SM BCFG SKC
     FM201300 17004KT P6SM FEW060
     FM210000 18004KT P6SM FEW200=

USA.gov is the U.S. government's official web portal to all federal, state and local government web resources and services.